This is the latest recevied weather packets stored in our database for station/object KF0JHJ. If no packets are shown the sender has not sent any weather packets the latest 10 day(s).
| Time | Temp. | Humidity | Pressure | Rain* | Wind** | Luminosity | Snow |
|---|---|---|---|---|---|---|---|
| 1777641004 | 5° C | 68% | 1016.6 hPa | - | - | 43 W/m² | - |
| 1777640700 | 5° C | 68% | 1016.5 hPa | - | - | 39 W/m² | - |
| 1777640397 | 4.44° C | 71% | 1016 hPa | - | - | 35 W/m² | - |
| 1777640094 | 3.89° C | 73% | 1016.5 hPa | - | - | 34 W/m² | - |
| 1777639791 | 3.89° C | 74% | 1016.1 hPa | - | - | 28 W/m² | - |
| 1777639489 | 3.89° C | 74% | 1015.8 hPa | - | - | 27 W/m² | - |
| 1777639185 | 3.89° C | 74% | 1016 hPa | - | - | 28 W/m² | - |
| 1777638881 | 3.33° C | 75% | 1015.9 hPa | - | - | 26 W/m² | - |
| 1777638577 | 3.33° C | 76% | 1015.8 hPa | - | - | 24 W/m² | - |
| 1777638274 | 3.33° C | 77% | 1015.9 hPa | - | - | 24 W/m² | - |
| 1777637970 | 2.78° C | 77% | 1015.8 hPa | - | - | 23 W/m² | - |
| 1777637666 | 2.78° C | 77% | 1015.7 hPa | - | - | 22 W/m² | - |
| 1777637364 | 2.78° C | 78% | 1015.5 hPa | - | - | 20 W/m² | - |
| 1777637060 | 2.78° C | 78% | 1015.7 hPa | - | - | 17 W/m² | - |
| 1777636756 | 2.78° C | 78% | 1015.5 hPa | - | - | 15 W/m² | - |
| 1777636452 | 2.78° C | 78% | 1015.6 hPa | - | - | 13 W/m² | - |
| 1777636148 | 2.78° C | 77% | 1015.6 hPa | - | - | 11 W/m² | - |
| 1777635843 | 2.78° C | 78% | 1015.4 hPa | - | - | 11 W/m² | - |
| 1777635540 | 2.78° C | 78% | 1015.4 hPa | - | - | 9 W/m² | - |
| 1777635237 | 2.78° C | 78% | 1015.4 hPa | - | - | 7 W/m² | - |
| 1777634933 | 2.78° C | 77% | 1015.4 hPa | - | - | 5 W/m² | - |
| 1777634630 | 2.78° C | 77% | 1015.3 hPa | - | - | 4 W/m² | - |
| 1777634328 | 2.78° C | 77% | 1015.1 hPa | - | - | 1 W/m² | - |
| 1777634024 | 2.78° C | 77% | 1015.2 hPa | - | - | 1 W/m² | - |
| 1777633721 | 2.78° C | 78% | 1015.3 hPa | - | - | 0 W/m² | - |
* Rain since midnight (hover to see other rain measurements)
** Current wind speed in m/s (hover to see current wind gust speed)